createdAt,value
2022-10-06T00:00:18.405Z,85.98
2022-10-06T00:03:55.042Z,85.72
2022-10-06T00:07:31.882Z,85.71
2022-10-06T00:11:10.422Z,85.42
2022-10-06T00:14:45.561Z,85.32
2022-10-06T00:18:25.469Z,85.26
2022-10-06T00:21:59.166Z,84.96
2022-10-06T00:25:39.000Z,84.60
2022-10-06T00:29:13.623Z,84.80
2022-10-06T00:33:04.712Z,85.04
2022-10-06T00:36:28.732Z,84.96
2022-10-06T00:40:18.211Z,84.88
2022-10-06T00:43:41.585Z,84.91
2022-10-06T00:47:18.403Z,84.93
2022-10-06T00:50:57.111Z,84.86
2022-10-06T00:54:34.474Z,84.97
2022-10-06T00:58:07.765Z,85.06
2022-10-06T01:01:57.442Z,85.36
2022-10-06T01:05:29.964Z,85.27
2022-10-06T01:09:00.442Z,85.48
2022-10-06T01:12:35.053Z,85.56
2022-10-06T01:16:23.460Z,85.53
2022-10-06T01:19:55.683Z,86.29
2022-10-06T01:23:24.824Z,86.57
2022-10-06T01:27:03.313Z,86.77
2022-10-06T01:30:54.588Z,87.00
2022-10-06T01:34:15.166Z,87.11
2022-10-06T01:37:51.987Z,87.35
2022-10-06T01:41:33.574Z,87.27
2022-10-06T01:45:06.895Z,87.66
2022-10-06T01:48:42.803Z,87.52
2022-10-06T01:52:22.347Z,87.84
2022-10-06T01:56:00.345Z,87.77
2022-10-06T01:59:33.058Z,87.84
2022-10-06T02:03:37.734Z,87.80
2022-10-06T02:06:52.875Z,87.96
2022-10-06T02:10:23.006Z,87.94
2022-10-06T02:14:01.977Z,88.11
2022-10-06T02:17:38.306Z,88.05
2022-10-06T02:21:19.116Z,88.24
2022-10-06T02:24:50.091Z,88.71
2022-10-06T02:28:27.799Z,88.65
2022-10-06T02:32:03.723Z,88.84
2022-10-06T02:35:43.143Z,89.06
2022-10-06T02:39:17.501Z,88.94
2022-10-06T02:42:54.422Z,88.62
2022-10-06T02:46:31.660Z,88.62
2022-10-06T02:50:08.864Z,88.50
2022-10-06T02:53:46.881Z,88.26
2022-10-06T02:57:21.522Z,88.05
2022-10-06T03:01:09.146Z,88.40
2022-10-06T03:04:34.902Z,88.35
2022-10-06T03:08:19.984Z,88.09
2022-10-06T03:11:48.560Z,88.52
2022-10-06T03:15:25.603Z,88.28
2022-10-06T03:19:03.785Z,88.68
2022-10-06T03:22:39.003Z,88.22
2022-10-06T03:26:18.163Z,88.28
2022-10-06T03:29:53.382Z,88.13
2022-10-06T03:33:34.922Z,87.55
2022-10-06T03:37:05.821Z,87.48
2022-10-06T03:40:46.970Z,87.58
2022-10-06T03:44:22.483Z,87.83
2022-10-06T03:47:56.569Z,87.46
2022-10-06T03:51:35.810Z,87.62
2022-10-06T03:55:10.003Z,87.72
2022-10-06T03:58:51.201Z,87.52
2022-10-06T04:02:23.668Z,87.31
2022-10-06T04:06:02.884Z,87.61
2022-10-06T04:09:37.124Z,88.38
2022-10-06T04:13:17.341Z,88.34
2022-10-06T04:16:51.581Z,88.12
2022-10-06T04:20:27.643Z,87.82
2022-10-06T04:24:06.041Z,87.41
2022-10-06T04:27:41.013Z,87.12
2022-10-06T04:31:20.970Z,86.64
2022-10-06T04:34:54.772Z,86.13
2022-10-06T04:38:35.824Z,85.72
2022-10-06T04:42:08.341Z,85.33
2022-10-06T04:45:45.216Z,85.04
2022-10-06T04:49:22.157Z,84.97
2022-10-06T04:52:58.803Z,84.71
2022-10-06T04:56:35.604Z,84.37
2022-10-06T05:00:25.551Z,84.08
2022-10-06T05:03:51.761Z,83.84
2022-10-06T05:07:26.226Z,83.31
2022-10-06T05:11:28.248Z,83.31
2022-10-06T05:14:39.682Z,83.23
2022-10-06T05:18:18.976Z,83.53
2022-10-06T05:21:53.258Z,83.42
2022-10-06T05:25:30.336Z,83.60
2022-10-06T05:29:07.268Z,83.64
2022-10-06T05:32:46.875Z,83.73
2022-10-06T05:36:23.598Z,84.11
2022-10-06T05:39:58.075Z,84.06
2022-10-06T05:43:36.245Z,83.96
2022-10-06T05:47:10.946Z,84.10
2022-10-06T05:51:08.412Z,84.02
2022-10-06T05:54:24.816Z,84.15
2022-10-06T05:58:01.496Z,83.84
2022-10-06T06:01:43.627Z,83.93
2022-10-06T06:05:47.207Z,84.07
2022-10-06T06:08:55.303Z,83.61
2022-10-06T06:12:29.223Z,83.58
2022-10-06T06:16:14.976Z,83.33
2022-10-06T06:20:21.302Z,83.41
2022-10-06T06:23:24.583Z,83.44
2022-10-06T06:26:59.495Z,83.32
2022-10-06T06:30:36.123Z,83.30
2022-10-06T06:34:12.914Z,83.45
2022-10-06T06:37:49.530Z,83.18
2022-10-06T06:41:32.235Z,83.25
2022-10-06T06:45:03.014Z,83.30
2022-10-06T06:48:46.241Z,83.09
2022-10-06T06:52:24.162Z,82.89
2022-10-06T06:55:54.087Z,82.59
2022-10-06T06:59:34.447Z,81.48
2022-10-06T07:03:07.181Z,79.24
2022-10-06T07:06:53.715Z,76.85
2022-10-06T07:10:21.202Z,76.35
2022-10-06T07:14:11.535Z,75.75
2022-10-06T07:17:56.623Z,75.26
2022-10-06T07:21:33.682Z,75.53
2022-10-06T07:25:07.784Z,75.70
2022-10-06T07:28:24.518Z,76.10
2022-10-06T07:32:02.207Z,76.28
2022-10-06T07:35:39.585Z,75.93
2022-10-06T07:39:14.985Z,75.90
2022-10-06T07:42:52.460Z,73.38
2022-10-06T07:46:28.900Z,72.79
2022-10-06T07:50:09.103Z,73.33
2022-10-06T07:53:44.823Z,73.56
2022-10-06T07:57:19.535Z,73.40
2022-10-06T08:00:55.763Z,72.98
2022-10-06T08:04:32.581Z,73.24
2022-10-06T08:08:09.350Z,74.12
2022-10-06T08:11:49.339Z,74.44
2022-10-06T08:15:23.163Z,75.14
2022-10-06T08:19:00.946Z,73.46
2022-10-06T08:22:38.907Z,73.82
2022-10-06T08:26:14.815Z,73.95
2022-10-06T08:29:51.161Z,74.30
2022-10-06T08:33:28.021Z,73.30
2022-10-06T08:37:20.574Z,73.92
2022-10-06T08:40:45.693Z,73.72
2022-10-06T08:44:34.803Z,72.80
2022-10-06T08:48:00.695Z,73.06
2022-10-06T08:51:54.042Z,71.94
2022-10-06T08:55:31.364Z,70.54
2022-10-06T08:58:57.662Z,71.49
2022-10-06T09:02:34.827Z,71.70
2022-10-06T09:06:17.143Z,70.46
2022-10-06T09:10:12.723Z,69.11
2022-10-06T09:13:22.050Z,69.68
2022-10-06T09:16:53.902Z,69.58
2022-10-06T09:20:37.004Z,69.01
2022-10-06T09:24:11.283Z,67.87
2022-10-06T09:27:40.961Z,67.75
2022-10-06T09:31:28.215Z,68.26
2022-10-06T09:34:56.268Z,67.23
2022-10-06T09:38:47.819Z,67.28
2022-10-06T09:42:26.082Z,65.53
2022-10-06T09:45:43.544Z,66.77
2022-10-06T09:49:22.783Z,66.31
2022-10-06T09:53:05.665Z,66.05
2022-10-06T09:56:36.405Z,66.38
2022-10-06T10:00:35.080Z,67.02
2022-10-06T10:04:15.679Z,66.43
2022-10-06T10:07:28.763Z,67.51
2022-10-06T10:11:41.161Z,67.26
2022-10-06T10:14:40.727Z,67.23
2022-10-06T10:18:26.444Z,66.65
2022-10-06T10:21:58.329Z,65.99
2022-10-06T10:26:08.168Z,66.78
2022-10-06T10:29:33.014Z,68.31
2022-10-06T10:33:10.073Z,68.19
2022-10-06T10:36:31.222Z,67.22
2022-10-06T10:40:03.503Z,68.49
2022-10-06T10:43:41.243Z,69.44
2022-10-06T10:47:19.504Z,68.29
2022-10-06T10:51:02.368Z,67.46
2022-10-06T10:54:52.123Z,66.22
2022-10-06T10:58:21.416Z,65.54
2022-10-06T11:02:11.732Z,67.90
2022-10-06T11:05:43.892Z,67.06
2022-10-06T11:09:23.405Z,66.80
2022-10-06T11:13:02.482Z,68.68
2022-10-06T11:16:37.834Z,68.12
2022-10-06T11:20:04.854Z,68.19
2022-10-06T11:23:46.115Z,67.20
2022-10-06T11:27:23.939Z,68.10
2022-10-06T11:30:51.406Z,66.64
2022-10-06T11:34:20.781Z,67.53
2022-10-06T11:38:02.666Z,66.41
2022-10-06T11:41:49.762Z,66.70
2022-10-06T11:45:16.575Z,66.78
2022-10-06T11:48:48.222Z,66.14
2022-10-06T11:52:23.943Z,67.42
2022-10-06T11:56:19.441Z,67.84
2022-10-06T11:59:37.447Z,69.73
2022-10-06T12:03:44.035Z,68.63
2022-10-06T12:06:51.203Z,68.42
2022-10-06T12:10:28.064Z,67.49
2022-10-06T12:15:31.947Z,66.34
2022-10-06T12:17:58.141Z,65.73
2022-10-06T12:21:28.046Z,65.88
2022-10-06T12:28:53.568Z,66.73
2022-10-06T12:33:17.364Z,66.31
2022-10-06T12:37:39.841Z,66.59
2022-10-06T12:42:00.264Z,66.17
2022-10-06T12:46:24.547Z,67.39
2022-10-06T12:50:26.835Z,65.47
2022-10-06T12:55:54.436Z,66.07
2022-10-06T12:59:55.043Z,66.77
2022-10-06T13:03:55.365Z,66.84
2022-10-06T13:08:22.733Z,66.22
2022-10-06T13:12:29.221Z,66.98
2022-10-06T13:16:41.075Z,67.53
2022-10-06T13:20:43.101Z,66.28
2022-10-06T13:24:43.117Z,67.46
2022-10-06T13:28:51.332Z,66.30
2022-10-06T13:32:39.803Z,64.57
2022-10-06T13:35:59.355Z,65.97
2022-10-06T13:39:58.143Z,65.83
2022-10-06T13:44:23.264Z,66.06
2022-10-06T13:48:30.139Z,65.54
2022-10-06T13:52:48.977Z,66.11
2022-10-06T13:57:01.269Z,66.28
2022-10-06T14:01:02.071Z,66.96
2022-10-06T14:05:20.755Z,65.87
2022-10-06T14:09:26.068Z,65.49
2022-10-06T14:13:38.060Z,66.59
2022-10-06T14:18:00.537Z,65.52
2022-10-06T14:22:02.467Z,65.93
2022-10-06T14:25:38.014Z,67.07
2022-10-06T14:29:50.077Z,67.69
2022-10-06T14:33:54.437Z,66.00
2022-10-06T14:37:53.491Z,66.11
2022-10-06T14:41:52.077Z,66.39
2022-10-06T14:45:51.433Z,68.33
2022-10-06T14:49:55.541Z,66.29
2022-10-06T14:53:56.706Z,67.43
2022-10-06T14:58:15.741Z,67.52
2022-10-06T15:02:16.922Z,66.83
2022-10-06T15:06:38.435Z,68.39
2022-10-06T15:10:38.923Z,68.38
2022-10-06T15:14:40.165Z,68.36
2022-10-06T15:18:42.611Z,69.16
2022-10-06T15:23:03.893Z,67.84
2022-10-06T15:26:37.592Z,68.96
2022-10-06T15:30:40.575Z,69.15
2022-10-06T15:34:15.121Z,69.52
2022-10-06T15:38:29.295Z,69.41
2022-10-06T15:42:29.441Z,68.89
2022-10-06T15:46:42.871Z,68.38
2022-10-06T15:51:02.820Z,68.35
2022-10-06T15:55:01.770Z,69.60
2022-10-06T15:59:08.884Z,70.43
2022-10-06T16:03:26.218Z,69.35
2022-10-06T16:06:56.147Z,70.35
2022-10-06T16:10:59.015Z,70.34
2022-10-06T16:14:57.846Z,71.67
2022-10-06T16:18:56.855Z,71.64
2022-10-06T16:22:55.835Z,72.68
2022-10-06T16:27:12.133Z,72.48
2022-10-06T16:31:10.904Z,72.71
2022-10-06T16:35:34.595Z,72.35
2022-10-06T16:39:32.981Z,72.38
2022-10-06T16:43:50.369Z,72.59
2022-10-06T16:47:22.860Z,73.12
2022-10-06T16:51:27.860Z,72.90
2022-10-06T16:55:27.774Z,73.53
2022-10-06T16:59:26.890Z,72.52
2022-10-06T17:03:25.685Z,72.75
2022-10-06T17:07:24.767Z,72.92
2022-10-06T17:11:25.678Z,72.81
2022-10-06T17:15:23.650Z,73.34
2022-10-06T17:19:35.784Z,73.06
2022-10-06T17:23:35.322Z,73.95
2022-10-06T17:27:47.656Z,73.97
2022-10-06T17:31:47.685Z,73.85
2022-10-06T17:35:46.378Z,73.73
2022-10-06T17:39:58.995Z,74.16
2022-10-06T17:44:13.904Z,74.50
2022-10-06T17:48:12.472Z,74.94
2022-10-06T17:52:11.211Z,74.69
2022-10-06T17:56:11.803Z,74.25
2022-10-06T18:00:11.195Z,74.37
2022-10-06T18:04:18.724Z,73.75
2022-10-06T18:08:20.976Z,74.01
2022-10-06T18:12:23.390Z,74.03
2022-10-06T18:16:24.951Z,74.67
2022-10-06T18:20:30.085Z,75.08
2022-10-06T18:24:31.603Z,75.16
2022-10-06T18:28:31.240Z,75.86
2022-10-06T18:36:48.583Z,75.66
2022-10-06T18:41:06.621Z,75.80
2022-10-06T18:45:24.838Z,76.25
2022-10-06T18:49:26.674Z,76.38
2022-10-06T18:53:02.916Z,76.19
2022-10-06T18:57:17.656Z,76.36
2022-10-06T19:00:54.773Z,76.29
2022-10-06T19:04:53.277Z,76.49
2022-10-06T19:09:00.989Z,76.40
2022-10-06T19:12:59.685Z,76.15
2022-10-06T19:17:14.700Z,76.80
2022-10-06T19:21:27.417Z,77.00
2022-10-06T19:25:30.742Z,76.61
2022-10-06T19:29:08.410Z,76.67
2022-10-06T19:33:20.836Z,76.48
2022-10-06T19:37:21.943Z,76.58
2022-10-06T19:41:18.181Z,76.71
2022-10-06T19:45:18.432Z,76.84
2022-10-06T19:49:20.375Z,75.82
2022-10-06T19:53:34.731Z,76.48
2022-10-06T20:29:50.258Z,75.62
2022-10-06T20:32:49.000Z,75.42
2022-10-06T20:36:51.874Z,76.21
2022-10-06T20:41:08.520Z,76.05
2022-10-06T20:45:07.603Z,76.12
2022-10-06T20:49:19.879Z,76.44
2022-10-06T20:53:32.533Z,76.78
2022-10-06T20:57:33.926Z,76.87
2022-10-06T21:01:32.979Z,76.82
2022-10-06T21:05:33.267Z,77.17
2022-10-06T21:09:31.665Z,77.05
2022-10-06T21:13:51.092Z,77.53
2022-10-06T21:18:05.885Z,77.31
2022-10-06T21:22:05.298Z,77.29
2022-10-06T21:26:04.599Z,77.91
2022-10-06T21:30:03.876Z,78.33
2022-10-06T21:34:04.219Z,78.36
2022-10-06T21:38:04.024Z,78.44
2022-10-06T21:42:03.091Z,78.36
2022-10-06T21:46:26.971Z,78.36
2022-10-06T21:50:20.097Z,77.61
2022-10-06T21:54:19.750Z,77.95
2022-10-06T21:58:32.026Z,78.07
2022-10-06T22:02:31.104Z,78.08
2022-10-06T22:06:31.764Z,78.37
2022-10-06T22:10:30.565Z,78.08
2022-10-06T22:14:28.865Z,78.45
2022-10-06T22:18:26.703Z,77.95
2022-10-06T22:22:38.447Z,78.51
2022-10-06T22:26:50.726Z,78.64
2022-10-06T22:30:49.404Z,78.51
2022-10-06T22:34:51.598Z,78.56
2022-10-06T22:38:52.958Z,78.88
2022-10-06T22:43:09.717Z,78.89
2022-10-06T22:46:50.156Z,78.59
2022-10-06T22:50:20.807Z,78.76
2022-10-06T22:54:22.601Z,78.07
2022-10-06T22:57:56.531Z,78.91
2022-10-06T23:01:54.741Z,78.45
2022-10-06T23:05:58.592Z,77.83
2022-10-06T23:10:10.506Z,77.34
2022-10-06T23:14:22.386Z,77.59
2022-10-06T23:18:20.666Z,77.94
2022-10-06T23:22:19.384Z,78.15
2022-10-06T23:26:19.176Z,77.80
2022-10-06T23:30:17.467Z,78.09
2022-10-06T23:34:15.643Z,77.54
2022-10-06T23:38:27.957Z,77.48
2022-10-06T23:42:26.824Z,77.83
2022-10-06T23:46:25.053Z,77.33
2022-10-06T23:50:23.384Z,77.93
2022-10-06T23:54:21.777Z,77.64
2022-10-06T23:58:29.285Z,78.08
